Time;durP1;ratioP1;P1;durP2;ratioP2;P2;SDS_P1;SDS_P2;PMS_P1;PMS_P2;Temp;Humidity;BMP_temperature;BMP_pressure;BME280_temperature;BME280_humidity;BME280_pressure;Samples;Min_cycle;Max_cycle;Signal;HPM_P1;HPM_P2
2023/06/25 00:02:12;;;;;;;8.95;7.82;;;;;;;;;;5088792;27;98444;-76
2023/06/25 00:04:38;;;;;;;11.48;8.50;;;;;;;;;;5090562;27;98552;-76
2023/06/25 00:07:05;;;;;;;10.65;8.48;;;;;;;;;;5090683;27;100039;-76
2023/06/25 00:09:32;;;;;;;9.45;8.00;;;;;;;;;;5093352;27;98524;-76
2023/06/25 00:11:58;;;;;;;10.18;8.80;;;;;;;;;;5090500;27;99877;-75
2023/06/25 00:14:25;;;;;;;10.13;8.20;;;;;;;;;;5090461;27;98265;-77
2023/06/25 00:16:57;;;;;;;11.57;8.57;;;;;;;;;;5089055;27;98553;-76
2023/06/25 00:19:25;;;;;;;11.40;9.15;;;;;;;;;;5089887;27;98971;-76
2023/06/25 00:21:51;;;;;;;10.13;8.85;;;;;;;;;;5090283;27;98254;-76
2023/06/25 00:24:18;;;;;;;14.90;9.48;;;;;;;;;;5089677;27;99476;-76
2023/06/25 00:26:45;;;;;;;11.30;9.15;;;;;;;;;;5089587;27;100304;-76
2023/06/25 00:29:13;;;;;;;11.63;8.85;;;;;;;;;;5089319;27;98818;-76
2023/06/25 00:31:41;;;;;;;10.70;8.95;;;;;;;;;;5074713;27;98817;-76
2023/06/25 00:34:08;;;;;;;9.23;8.30;;;;;;;;;;5090173;27;98424;-77
2023/06/25 00:36:36;;;;;;;12.27;8.63;;;;;;;;;;5090328;27;98976;-76
2023/06/25 00:39:03;;;;;;;13.32;9.30;;;;;;;;;;5089930;27;100157;-76
2023/06/25 00:41:30;;;;;;;9.63;8.63;;;;;;;;;;5071868;27;99852;-76
2023/06/25 00:43:57;;;;;;;12.15;9.07;;;;;;;;;;5070730;27;100430;-76
2023/06/25 00:46:25;;;;;;;13.18;8.52;;;;;;;;;;5090340;27;98849;-77
2023/06/25 00:48:52;;;;;;;15.13;8.40;;;;;;;;;;5090373;27;98379;-77
2023/06/25 00:51:26;;;;;;;9.88;8.88;;;;;;;;;;5069576;27;99350;-77
2023/06/25 00:53:53;;;;;;;11.40;8.55;;;;;;;;;;5074550;27;100711;-77
2023/06/25 00:56:27;;;;;;;11.38;8.50;;;;;;;;;;5071478;27;100990;-76
2023/06/25 00:59:03;;;;;;;14.27;8.80;;;;;;;;;;5089039;27;98934;-77
2023/06/25 01:01:39;;;;;;;8.45;7.65;;;;;;;;;;5089489;27;98434;-77
2023/06/25 01:04:11;;;;;;;9.55;8.55;;;;;;;;;;5089748;27;98270;-77
2023/06/25 01:06:40;;;;;;;10.83;9.53;;;;;;;;;;5088760;27;98773;-78
2023/06/25 01:09:08;;;;;;;11.20;8.70;;;;;;;;;;5071283;27;98341;-77
2023/06/25 01:11:37;;;;;;;12.20;9.07;;;;;;;;;;5071605;27;101080;-77
2023/06/25 01:14:04;;;;;;;12.98;9.43;;;;;;;;;;5072268;27;102018;-78
2023/06/25 01:16:30;;;;;;;9.48;8.57;;;;;;;;;;5074254;27;98203;-76
2023/06/25 01:19:02;;;;;;;9.85;8.63;;;;;;;;;;5088640;27;98954;-76
2023/06/25 01:21:31;;;;;;;9.85;8.63;;;;;;;;;;5071100;27;98315;-76
2023/06/25 01:23:58;;;;;;;14.90;9.25;;;;;;;;;;5089253;27;99414;-76
2023/06/25 01:26:24;;;;;;;12.60;9.50;;;;;;;;;;5070190;27;100295;-76
2023/06/25 01:28:55;;;;;;;21.40;9.93;;;;;;;;;;5089735;27;98281;-76
2023/06/25 01:31:22;;;;;;;10.55;9.45;;;;;;;;;;5089354;27;99440;-75
2023/06/25 01:33:48;;;;;;;10.82;9.02;;;;;;;;;;5089109;27;98777;-76
2023/06/25 01:36:15;;;;;;;12.77;9.00;;;;;;;;;;5092570;27;98310;-77
2023/06/25 01:38:41;;;;;;;10.60;8.93;;;;;;;;;;5089474;27;99556;-77
2023/06/25 01:41:08;;;;;;;9.57;8.57;;;;;;;;;;5069047;27;98534;-77
2023/06/25 01:43:34;;;;;;;13.38;10.18;;;;;;;;;;5089504;27;100343;-77
2023/06/25 01:46:01;;;;;;;9.85;8.70;;;;;;;;;;5088730;27;98989;-77
2023/06/25 01:48:30;;;;;;;12.32;9.55;;;;;;;;;;5088380;27;98344;-77
2023/06/25 01:50:57;;;;;;;10.70;9.32;;;;;;;;;;5070659;27;98933;-77
2023/06/25 01:53:25;;;;;;;12.18;9.32;;;;;;;;;;5070598;27;100095;-77
2023/06/25 01:55:52;;;;;;;10.52;8.13;;;;;;;;;;5088722;27;98786;-77
2023/06/25 01:58:19;;;;;;;12.60;9.30;;;;;;;;;;5073932;27;101027;-77
2023/06/25 02:00:45;;;;;;;9.98;8.98;;;;;;;;;;5070470;27;98315;-77
2023/06/25 02:03:14;;;;;;;16.20;9.25;;;;;;;;;;5086658;27;99011;-77
2023/06/25 02:05:41;;;;;;;13.18;8.80;;;;;;;;;;5069948;27;100056;-78
2023/06/25 02:08:08;;;;;;;14.13;8.88;;;;;;;;;;5088843;27;98198;-77
2023/06/25 02:10:34;;;;;;;11.80;9.82;;;;;;;;;;5089452;27;98387;-77
2023/06/25 02:13:01;;;;;;;9.68;8.70;;;;;;;;;;5070227;27;101564;-77
2023/06/25 02:15:28;;;;;;;9.07;8.25;;;;;;;;;;5069921;27;98318;-77
2023/06/25 02:17:55;;;;;;;9.77;8.88;;;;;;;;;;5070209;27;100935;-75
2023/06/25 02:20:21;;;;;;;8.82;7.93;;;;;;;;;;5073781;27;101453;-78
2023/06/25 02:22:48;;;;;;;8.77;7.97;;;;;;;;;;5069427;27;98776;-78
2023/06/25 02:25:14;;;;;;;9.07;8.25;;;;;;;;;;5088625;27;98823;-76
2023/06/25 02:27:41;;;;;;;10.70;8.45;;;;;;;;;;5088830;27;98263;-77
2023/06/25 02:30:07;;;;;;;13.85;9.30;;;;;;;;;;5086045;27;98569;-77
2023/06/25 02:32:34;;;;;;;12.05;8.85;;;;;;;;;;5069867;27;101883;-77
2023/06/25 02:35:01;;;;;;;9.75;8.68;;;;;;;;;;5087509;27;98333;-77
2023/06/25 02:37:27;;;;;;;9.38;8.48;;;;;;;;;;5087043;27;98184;-77
2023/06/25 02:39:54;;;;;;;9.65;8.77;;;;;;;;;;5069930;27;100000;-77
2023/06/25 02:42:20;;;;;;;9.73;8.68;;;;;;;;;;5091950;27;98248;-77
2023/06/25 02:44:47;;;;;;;13.13;8.40;;;;;;;;;;5088040;27;99483;-77
2023/06/25 02:47:13;;;;;;;9.10;8.20;;;;;;;;;;5069678;27;99357;-77
2023/06/25 02:49:40;;;;;;;12.10;8.07;;;;;;;;;;5069207;27;100352;-77
2023/06/25 02:52:07;;;;;;;10.07;9.10;;;;;;;;;;5068711;27;100187;-77
2023/06/25 02:54:33;;;;;;;14.35;7.90;;;;;;;;;;5086573;27;98562;-77
2023/06/25 02:56:59;;;;;;;10.93;8.05;;;;;;;;;;5087852;27;99487;-77
2023/06/25 02:59:26;;;;;;;9.57;8.52;;;;;;;;;;5086984;27;100077;-77
2023/06/25 03:01:52;;;;;;;10.18;9.18;;;;;;;;;;5069480;27;98213;-77
2023/06/25 03:04:19;;;;;;;11.25;8.88;;;;;;;;;;5070923;27;100442;-77
2023/06/25 03:06:46;;;;;;;9.90;8.90;;;;;;;;;;5069146;27;98299;-77
2023/06/25 03:09:14;;;;;;;9.52;8.52;;;;;;;;;;5064992;27;100703;-77
2023/06/25 03:11:40;;;;;;;9.80;8.60;;;;;;;;;;5066898;27;98680;-77
2023/06/25 03:14:07;;;;;;;15.93;9.00;;;;;;;;;;5067339;27;98793;-77
2023/06/25 03:16:35;;;;;;;10.45;8.82;;;;;;;;;;5069729;27;100568;-77
2023/06/25 03:19:02;;;;;;;9.15;8.25;;;;;;;;;;5069004;27;98893;-77
2023/06/25 03:21:29;;;;;;;9.93;8.85;;;;;;;;;;5069603;27;98363;-78
2023/06/25 03:23:56;;;;;;;11.30;8.82;;;;;;;;;;5068778;27;100578;-77
2023/06/25 03:26:22;;;;;;;9.55;8.55;;;;;;;;;;5071362;27;99088;-77
2023/06/25 03:28:53;;;;;;;12.15;9.07;;;;;;;;;;5069382;27;99511;-77
2023/06/25 03:31:20;;;;;;;14.38;9.70;;;;;;;;;;5069010;27;100010;-78
2023/06/25 03:33:50;;;;;;;13.95;9.38;;;;;;;;;;5068333;27;98502;-77
2023/06/25 03:36:17;;;;;;;13.52;8.90;;;;;;;;;;5070857;27;98415;-77
2023/06/25 03:38:44;;;;;;;13.15;8.98;;;;;;;;;;5068964;27;101371;-75
2023/06/25 03:41:10;;;;;;;9.48;8.57;;;;;;;;;;5068142;27;98472;-78
2023/06/25 03:43:37;;;;;;;12.05;9.13;;;;;;;;;;5068542;27;101173;-78
2023/06/25 03:46:04;;;;;;;12.00;9.43;;;;;;;;;;5071722;27;99477;-78
2023/06/25 03:48:32;;;;;;;9.45;8.45;;;;;;;;;;5068697;27;100477;-76
2023/06/25 03:50:59;;;;;;;10.90;9.30;;;;;;;;;;5069988;27;98737;-77
2023/06/25 03:53:26;;;;;;;11.88;9.00;;;;;;;;;;5070267;27;98312;-77
2023/06/25 03:55:53;;;;;;;9.90;8.85;;;;;;;;;;5069247;27;99667;-77
2023/06/25 03:58:20;;;;;;;9.75;8.68;;;;;;;;;;5068608;27;99371;-76
2023/06/25 04:00:46;;;;;;;13.45;9.48;;;;;;;;;;5068779;27;98996;-78
2023/06/25 04:03:13;;;;;;;12.45;9.88;;;;;;;;;;5068937;27;99345;-77
2023/06/25 04:05:39;;;;;;;12.50;9.85;;;;;;;;;;5068916;27;99890;-78
2023/06/25 04:08:06;;;;;;;16.40;9.30;;;;;;;;;;5069986;27;98393;-77
2023/06/25 04:10:32;;;;;;;16.92;9.73;;;;;;;;;;5067474;27;98898;-77
2023/06/25 04:13:00;;;;;;;11.02;9.35;;;;;;;;;;5067780;27;98373;-77
2023/06/25 04:15:26;;;;;;;13.90;9.93;;;;;;;;;;5067268;27;100767;-77
2023/06/25 04:17:54;;;;;;;9.73;8.73;;;;;;;;;;5066932;27;101596;-77
2023/06/25 04:20:23;;;;;;;11.10;9.23;;;;;;;;;;5067701;27;98040;-77
2023/06/25 04:22:49;;;;;;;11.38;9.55;;;;;;;;;;5066977;27;98901;-77
2023/06/25 04:25:16;;;;;;;12.30;9.68;;;;;;;;;;5068446;27;98869;-78
2023/06/25 04:27:42;;;;;;;10.60;8.68;;;;;;;;;;5067399;27;98313;-77
2023/06/25 04:30:10;;;;;;;9.90;8.82;;;;;;;;;;5069663;27;100876;-77
2023/06/25 04:32:36;;;;;;;10.45;9.07;;;;;;;;;;5066113;27;98297;-77
2023/06/25 04:35:04;;;;;;;10.15;9.15;;;;;;;;;;5067272;27;99861;-78
2023/06/25 04:37:30;;;;;;;10.77;9.65;;;;;;;;;;5066674;27;98969;-76
2023/06/25 04:39:57;;;;;;;10.80;9.10;;;;;;;;;;5067627;27;98653;-77
2023/06/25 04:42:23;;;;;;;11.63;9.48;;;;;;;;;;5067512;27;101624;-77
2023/06/25 04:44:51;;;;;;;14.45;9.35;;;;;;;;;;5068145;27;99545;-78
2023/06/25 04:47:19;;;;;;;10.77;9.80;;;;;;;;;;5068270;27;98254;-75
2023/06/25 04:49:45;;;;;;;12.35;9.05;;;;;;;;;;5068313;27;98527;-78
2023/06/25 04:52:18;;;;;;;11.45;9.65;;;;;;;;;;5070021;27;99707;-77
2023/06/25 04:54:45;;;;;;;11.05;9.85;;;;;;;;;;5067309;27;99655;-76
2023/06/25 04:57:11;;;;;;;11.40;9.68;;;;;;;;;;5066156;27;98945;-76
2023/06/25 04:59:38;;;;;;;13.55;10.27;;;;;;;;;;5068293;27;98198;-75
2023/06/25 05:02:05;;;;;;;11.32;9.45;;;;;;;;;;5067866;27;99153;-77
2023/06/25 05:04:31;;;;;;;19.45;10.05;;;;;;;;;;5067435;27;100079;-77
2023/06/25 05:06:58;;;;;;;11.63;9.02;;;;;;;;;;5067742;27;98256;-77
2023/06/25 05:09:24;;;;;;;11.15;10.02;;;;;;;;;;5041252;27;1185228;-77
2023/06/25 05:11:51;;;;;;;9.80;8.90;;;;;;;;;;5088992;27;99940;-77
2023/06/25 05:14:17;;;;;;;16.48;9.90;;;;;;;;;;5093349;27;98265;-77
2023/06/25 05:16:43;;;;;;;25.52;10.38;;;;;;;;;;5088793;27;98993;-77
2023/06/25 05:19:10;;;;;;;11.52;10.00;;;;;;;;;;5089020;27;99445;-77
2023/06/25 05:21:36;;;;;;;17.80;9.73;;;;;;;;;;5088980;27;99671;-78
2023/06/25 05:24:05;;;;;;;14.73;9.75;;;;;;;;;;5089439;27;99886;-77
2023/06/25 05:26:32;;;;;;;10.32;9.27;;;;;;;;;;5087847;27;98328;-78
2023/06/25 05:28:59;;;;;;;14.60;9.75;;;;;;;;;;5088650;27;98801;-78
2023/06/25 05:31:25;;;;;;;10.13;9.15;;;;;;;;;;5089211;27;100202;-76
2023/06/25 05:33:52;;;;;;;15.65;9.57;;;;;;;;;;5092224;27;98269;-78
2023/06/25 05:36:18;;;;;;;10.10;9.10;;;;;;;;;;5088301;27;100005;-77
2023/06/25 05:38:45;;;;;;;16.13;9.95;;;;;;;;;;5089714;27;99055;-78
2023/06/25 05:41:11;;;;;;;12.00;8.95;;;;;;;;;;5088330;27;99440;-77
2023/06/25 05:43:38;;;;;;;11.98;9.15;;;;;;;;;;5088826;27;98920;-75
2023/06/25 05:46:04;;;;;;;18.30;8.95;;;;;;;;;;5088115;27;98719;-77
2023/06/25 05:48:31;;;;;;;9.80;8.80;;;;;;;;;;5089063;27;98554;-78
2023/06/25 05:50:57;;;;;;;16.65;8.27;;;;;;;;;;5088899;27;99873;-75
2023/06/25 05:53:24;;;;;;;15.20;8.85;;;;;;;;;;5088675;27;98259;-76
2023/06/25 05:55:51;;;;;;;15.38;9.70;;;;;;;;;;5092380;27;99414;-76
2023/06/25 05:58:17;;;;;;;9.73;8.82;;;;;;;;;;5089143;27;98327;-76
2023/06/25 06:00:44;;;;;;;8.93;8.05;;;;;;;;;;5088612;27;99386;-76
2023/06/25 06:03:10;;;;;;;8.45;7.10;;;;;;;;;;5089276;27;100488;-76
2023/06/25 06:05:37;;;;;;;8.88;8.15;;;;;;;;;;5088750;27;98262;-76
2023/06/25 06:08:04;;;;;;;8.57;7.85;;;;;;;;;;5086413;27;98575;-76
2023/06/25 06:10:30;;;;;;;8.23;7.53;;;;;;;;;;5087081;27;98224;-76
2023/06/25 06:12:57;;;;;;;8.43;7.68;;;;;;;;;;5087947;27;98617;-76
2023/06/25 06:15:23;;;;;;;8.60;7.90;;;;;;;;;;5088071;27;99445;-76
2023/06/25 06:17:50;;;;;;;9.00;7.97;;;;;;;;;;5092024;27;100327;-76
2023/06/25 06:20:16;;;;;;;7.90;7.30;;;;;;;;;;5088560;27;99667;-76
2023/06/25 06:22:42;;;;;;;9.55;8.05;;;;;;;;;;5087803;27;100198;-76
2023/06/25 06:25:09;;;;;;;20.55;8.40;;;;;;;;;;5088116;27;98276;-76
2023/06/25 06:27:35;;;;;;;14.27;7.55;;;;;;;;;;5088777;27;98782;-76
2023/06/25 06:30:02;;;;;;;9.05;7.07;;;;;;;;;;5087559;27;100061;-76
2023/06/25 06:32:28;;;;;;;7.32;6.60;;;;;;;;;;5087852;27;98079;-76
2023/06/25 06:34:55;;;;;;;8.75;7.43;;;;;;;;;;5087845;27;99578;-76
2023/06/25 06:37:21;;;;;;;7.82;7.03;;;;;;;;;;5087775;27;100153;-76
2023/06/25 06:39:48;;;;;;;9.15;7.57;;;;;;;;;;5091601;27;98297;-76
2023/06/25 06:42:14;;;;;;;7.82;6.90;;;;;;;;;;5086629;27;99202;-77
2023/06/25 06:44:41;;;;;;;7.45;6.85;;;;;;;;;;5088619;27;98249;-77
2023/06/25 06:47:07;;;;;;;7.53;6.82;;;;;;;;;;5088088;27;98502;-77
2023/06/25 06:49:33;;;;;;;10.18;6.70;;;;;;;;;;5086692;27;98954;-77
2023/06/25 06:52:00;;;;;;;7.10;6.53;;;;;;;;;;5087855;27;99341;-77
2023/06/25 06:54:28;;;;;;;9.52;6.55;;;;;;;;;;5088372;27;99707;-77
2023/06/25 06:56:54;;;;;;;8.88;6.90;;;;;;;;;;5087661;27;99926;-77
2023/06/25 06:59:23;;;;;;;8.05;7.35;;;;;;;;;;5086276;27;98285;-75
2023/06/25 07:01:50;;;;;;;7.43;6.82;;;;;;;;;;5091803;27;99533;-76
2023/06/25 07:04:16;;;;;;;9.98;6.90;;;;;;;;;;5086718;27;98237;-76
2023/06/25 07:06:43;;;;;;;7.97;7.20;;;;;;;;;;5087300;27;98732;-76
2023/06/25 07:09:09;;;;;;;8.38;6.45;;;;;;;;;;5086775;27;99087;-76
2023/06/25 07:11:36;;;;;;;11.02;7.40;;;;;;;;;;5087498;27;98337;-76
2023/06/25 07:14:02;;;;;;;8.23;6.85;;;;;;;;;;5088058;27;99376;-76
2023/06/25 07:16:29;;;;;;;8.80;6.65;;;;;;;;;;5088356;27;99978;-76
2023/06/25 07:18:55;;;;;;;8.27;7.63;;;;;;;;;;5085908;27;98260;-76
2023/06/25 07:21:22;;;;;;;7.50;6.90;;;;;;;;;;5088819;27;99485;-76
2023/06/25 07:23:48;;;;;;;9.88;7.30;;;;;;;;;;5093058;27;100095;-76
2023/06/25 07:26:15;;;;;;;20.35;7.53;;;;;;;;;;5089622;27;99807;-76
2023/06/25 07:28:41;;;;;;;10.35;7.55;;;;;;;;;;5088971;27;99816;-76
2023/06/25 07:31:07;;;;;;;7.97;7.18;;;;;;;;;;5087913;27;98281;-77
2023/06/25 07:33:34;;;;;;;8.40;6.65;;;;;;;;;;5086630;27;98699;-77
2023/06/25 07:36:00;;;;;;;8.07;6.53;;;;;;;;;;5086990;27;99004;-77
2023/06/25 07:38:27;;;;;;;8.60;7.07;;;;;;;;;;5087928;27;98248;-76
2023/06/25 07:40:53;;;;;;;6.78;6.22;;;;;;;;;;5087719;27;99479;-76
2023/06/25 07:43:20;;;;;;;9.80;6.88;;;;;;;;;;5090195;27;101119;-76
2023/06/25 07:45:46;;;;;;;6.93;6.32;;;;;;;;;;5087216;27;98554;-76
2023/06/25 07:48:13;;;;;;;6.60;6.00;;;;;;;;;;5086136;27;99352;-76
2023/06/25 07:50:39;;;;;;;6.53;5.90;;;;;;;;;;5087351;27;98844;-76
2023/06/25 07:53:06;;;;;;;9.30;6.30;;;;;;;;;;5086116;27;98649;-76
2023/06/25 07:55:39;;;;;;;8.02;6.45;;;;;;;;;;5087538;27;100085;-76
2023/06/25 07:58:26;;;;;;;8.15;6.47;;;;;;;;;;5087764;27;98131;-76
2023/06/25 08:00:52;;;;;;;8.48;6.03;;;;;;;;;;5088266;27;98938;-76
2023/06/25 08:03:19;;;;;;;6.07;5.50;;;;;;;;;;5090021;27;98963;-76
2023/06/25 08:05:45;;;;;;;6.68;6.07;;;;;;;;;;5094122;27;98261;-76
2023/06/25 08:08:12;;;;;;;6.00;5.20;;;;;;;;;;5089403;27;99481;-76
2023/06/25 08:10:38;;;;;;;9.50;6.13;;;;;;;;;;5090651;27;99768;-76
2023/06/25 08:13:05;;;;;;;6.90;5.70;;;;;;;;;;5088996;27;98711;-76
2023/06/25 08:15:31;;;;;;;6.00;5.60;;;;;;;;;;5089118;27;99051;-76
2023/06/25 08:17:58;;;;;;;5.97;5.30;;;;;;;;;;5090711;27;98008;-76
2023/06/25 08:20:24;;;;;;;5.97;5.10;;;;;;;;;;5090742;27;99792;-76
2023/06/25 08:22:50;;;;;;;8.23;5.10;;;;;;;;;;5089012;27;99266;-76
2023/06/25 08:25:21;;;;;;;9.88;5.88;;;;;;;;;;5090438;27;98554;-76
2023/06/25 08:27:47;;;;;;;5.00;4.70;;;;;;;;;;5092579;27;98623;-76
2023/06/25 08:30:14;;;;;;;12.40;5.50;;;;;;;;;;5090286;27;98264;-76
2023/06/25 08:32:40;;;;;;;5.70;5.20;;;;;;;;;;5090683;27;99699;-76
2023/06/25 08:35:07;;;;;;;5.95;5.55;;;;;;;;;;5088411;27;99737;-76
2023/06/25 08:37:33;;;;;;;6.70;6.10;;;;;;;;;;5089525;27;98316;-75
2023/06/25 08:40:00;;;;;;;5.53;5.05;;;;;;;;;;5090429;27;99955;-75
2023/06/25 08:42:27;;;;;;;6.10;5.18;;;;;;;;;;5089232;27;100295;-76
2023/06/25 08:44:55;;;;;;;5.00;4.60;;;;;;;;;;5090344;27;98209;-76
2023/06/25 08:47:24;;;;;;;4.55;4.18;;;;;;;;;;5090291;27;99276;-76
2023/06/25 08:49:50;;;;;;;4.63;4.30;;;;;;;;;;5092796;27;100342;-76
2023/06/25 08:52:18;;;;;;;9.05;4.57;;;;;;;;;;5089124;27;98632;-75
2023/06/25 08:54:45;;;;;;;6.55;3.90;;;;;;;;;;5090449;27;99852;-75
2023/06/25 08:57:11;;;;;;;4.82;4.50;;;;;;;;;;5088098;27;98233;-75
2023/06/25 08:59:38;;;;;;;4.28;4.03;;;;;;;;;;5088988;27;98650;-75
2023/06/25 09:02:04;;;;;;;4.55;4.15;;;;;;;;;;5088038;27;98898;-75
2023/06/25 09:04:31;;;;;;;4.00;3.60;;;;;;;;;;5088574;27;98331;-75
2023/06/25 09:07:08;;;;;;;3.85;3.58;;;;;;;;;;5090025;27;99482;-75
2023/06/25 09:09:34;;;;;;;3.33;3.10;;;;;;;;;;5088593;27;99501;-75
2023/06/25 09:12:01;;;;;;;5.80;3.30;;;;;;;;;;5090866;27;98410;-76
2023/06/25 09:14:28;;;;;;;4.57;3.75;;;;;;;;;;5089175;27;98946;-75
2023/06/25 09:16:56;;;;;;;3.58;3.28;;;;;;;;;;5088986;27;98203;-75
2023/06/25 09:19:23;;;;;;;3.95;3.63;;;;;;;;;;5090025;27;99790;-75
2023/06/25 09:21:50;;;;;;;6.13;3.75;;;;;;;;;;5089934;27;100188;-76
2023/06/25 09:24:17;;;;;;;4.00;3.70;;;;;;;;;;5088364;27;98268;-75
2023/06/25 09:26:47;;;;;;;5.85;3.63;;;;;;;;;;5088840;27;99834;-75
2023/06/25 09:29:14;;;;;;;11.40;3.40;;;;;;;;;;5089249;27;100009;-75
2023/06/25 09:31:42;;;;;;;3.42;3.13;;;;;;;;;;5088808;27;98261;-75
2023/06/25 09:34:08;;;;;;;4.68;3.75;;;;;;;;;;5091708;27;98670;-75
2023/06/25 09:36:38;;;;;;;3.15;2.95;;;;;;;;;;5089701;27;98733;-75
2023/06/25 09:39:06;;;;;;;3.10;2.90;;;;;;;;;;5087744;27;98119;-75
2023/06/25 09:41:34;;;;;;;4.90;3.60;;;;;;;;;;5088712;27;99007;-75
2023/06/25 09:44:03;;;;;;;4.15;2.90;;;;;;;;;;5088282;27;98205;-75
2023/06/25 09:46:34;;;;;;;3.40;2.92;;;;;;;;;;5088748;27;99802;-75
2023/06/25 09:49:01;;;;;;;43.90;5.75;;;;;;;;;;5089057;27;100015;-75
2023/06/25 09:51:30;;;;;;;3.33;2.72;;;;;;;;;;5088499;27;98251;-75
2023/06/25 09:53:59;;;;;;;4.47;2.45;;;;;;;;;;5090745;27;98834;-75
2023/06/25 09:56:26;;;;;;;3.28;2.38;;;;;;;;;;5091282;27;98188;-75
2023/06/25 09:58:52;;;;;;;2.90;2.70;;;;;;;;;;5089178;27;99559;-75
2023/06/25 10:01:19;;;;;;;3.17;2.90;;;;;;;;;;5088235;27;99913;-75
2023/06/25 10:03:46;;;;;;;2.97;2.35;;;;;;;;;;5087881;27;98233;-75
2023/06/25 10:06:12;;;;;;;3.80;2.50;;;;;;;;;;5087449;27;99087;-74
2023/06/25 10:08:39;;;;;;;2.65;2.55;;;;;;;;;;5087602;27;98982;-75
2023/06/25 10:11:05;;;;;;;2.45;2.35;;;;;;;;;;5088946;27;98245;-75
2023/06/25 10:13:32;;;;;;;3.10;2.58;;;;;;;;;;5088522;27;99435;-74
2023/06/25 10:16:02;;;;;;;2.40;2.30;;;;;;;;;;5090992;27;100035;-75
2023/06/25 10:18:29;;;;;;;;;;;;;;;;;;5088385;27;98699;-75
2023/06/25 10:21:01;;;;;;;4.57;2.90;;;;;;;;;;5087169;27;120392;-75
2023/06/25 10:23:28;;;;;;;3.95;2.60;;;;;;;;;;5087455;27;98216;-75
2023/06/25 10:25:56;;;;;;;3.92;2.67;;;;;;;;;;5088834;27;99375;-76
2023/06/25 10:28:34;;;;;;;3.10;2.90;;;;;;;;;;5088028;27;99807;-76
2023/06/25 10:31:11;;;;;;;2.65;2.55;;;;;;;;;;5088435;27;98249;-75
2023/06/25 10:33:38;;;;;;;3.83;2.78;;;;;;;;;;5089304;27;99642;-76
2023/06/25 10:36:11;;;;;;;2.47;2.33;;;;;;;;;;5087214;27;99646;-75
2023/06/25 10:38:37;;;;;;;4.82;2.92;;;;;;;;;;5091328;27;98250;-75
2023/06/25 10:41:04;;;;;;;2.90;2.70;;;;;;;;;;5086967;27;99482;-76
2023/06/25 10:43:30;;;;;;;3.70;2.58;;;;;;;;;;5086692;27;98312;-75
2023/06/25 10:45:57;;;;;;;3.30;2.90;;;;;;;;;;5088164;27;99381;-76
2023/06/25 10:48:24;;;;;;;2.97;2.78;;;;;;;;;;5087187;27;98789;-75
2023/06/25 10:50:52;;;;;;;5.05;2.38;;;;;;;;;;5088200;27;98225;-75
2023/06/25 10:53:19;;;;;;;3.60;2.90;;;;;;;;;;5088027;27;99449;-75
2023/06/25 10:55:46;;;;;;;3.13;2.92;;;;;;;;;;5086223;27;99502;-75
2023/06/25 10:58:16;;;;;;;4.78;2.92;;;;;;;;;;5087308;27;98305;-75
2023/06/25 11:00:43;;;;;;;3.38;2.63;;;;;;;;;;5091442;27;99370;-75
2023/06/25 11:03:10;;;;;;;3.03;2.83;;;;;;;;;;5086532;27;99111;-76
2023/06/25 11:05:38;;;;;;;2.95;2.65;;;;;;;;;;5087462;27;99486;-76
2023/06/25 11:08:06;;;;;;;2.70;2.50;;;;;;;;;;5087186;27;100187;-75
2023/06/25 11:10:33;;;;;;;2.80;2.70;;;;;;;;;;5086390;27;98461;-75
2023/06/25 11:12:59;;;;;;;2.35;2.25;;;;;;;;;;5087061;27;98652;-75
2023/06/25 11:15:29;;;;;;;9.20;2.78;;;;;;;;;;5087410;27;98903;-75
2023/06/25 11:17:56;;;;;;;4.83;2.50;;;;;;;;;;5085982;27;98283;-75
2023/06/25 11:20:23;;;;;;;3.08;2.88;;;;;;;;;;5087551;27;98515;-75
2023/06/25 11:22:49;;;;;;;2.63;2.45;;;;;;;;;;5090264;27;99416;-75
2023/06/25 11:25:16;;;;;;;2.75;2.55;;;;;;;;;;5086794;27;99809;-75
2023/06/25 11:27:43;;;;;;;2.88;2.67;;;;;;;;;;5086854;27;98944;-75
2023/06/25 11:30:09;;;;;;;3.75;3.08;;;;;;;;;;5086847;27;98213;-75
2023/06/25 11:32:37;;;;;;;2.80;2.60;;;;;;;;;;5087066;27;99746;-75
2023/06/25 11:35:07;;;;;;;5.18;2.65;;;;;;;;;;5088162;27;100135;-75
2023/06/25 11:37:41;;;;;;;3.20;2.90;;;;;;;;;;5091105;27;98251;-75
2023/06/25 11:40:08;;;;;;;3.03;2.83;;;;;;;;;;5091090;27;99545;-75
2023/06/25 11:42:37;;;;;;;3.33;3.13;;;;;;;;;;5091616;27;100568;-75
2023/06/25 11:45:05;;;;;;;3.20;3.00;;;;;;;;;;5093007;27;98825;-74
2023/06/25 11:47:31;;;;;;;3.45;3.25;;;;;;;;;;5090171;27;98909;-74
2023/06/25 11:49:59;;;;;;;3.50;3.30;;;;;;;;;;5090448;27;98264;-75
2023/06/25 11:52:25;;;;;;;4.68;3.40;;;;;;;;;;5090552;27;98504;-74
2023/06/25 11:54:52;;;;;;;3.80;3.38;;;;;;;;;;5090183;27;100080;-75
2023/06/25 11:57:18;;;;;;;3.53;3.22;;;;;;;;;;5089417;27;98295;-75
2023/06/25 11:59:45;;;;;;;3.95;3.65;;;;;;;;;;5090233;27;98742;-75
2023/06/25 12:02:11;;;;;;;9.30;3.38;;;;;;;;;;5090503;27;99977;-75
2023/06/25 12:04:38;;;;;;;3.53;3.33;;;;;;;;;;5093952;27;98180;-75
2023/06/25 12:07:05;;;;;;;3.50;3.22;;;;;;;;;;5088782;27;98902;-75
2023/06/25 12:09:32;;;;;;;4.68;3.45;;;;;;;;;;5089814;27;98270;-75
2023/06/25 12:11:58;;;;;;;3.63;3.10;;;;;;;;;;5090875;27;99432;-75
2023/06/25 12:14:25;;;;;;;5.15;3.17;;;;;;;;;;5089401;27;99054;-74
2023/06/25 12:16:51;;;;;;;3.53;3.22;;;;;;;;;;5090877;27;98769;-76
2023/06/25 12:19:18;;;;;;;3.85;3.13;;;;;;;;;;5089330;27;99550;-76
2023/06/25 12:21:44;;;;;;;8.20;3.35;;;;;;;;;;5090072;27;100266;-76
2023/06/25 12:24:11;;;;;;;3.47;3.28;;;;;;;;;;5090057;27;98284;-75
2023/06/25 12:26:38;;;;;;;3.40;3.20;;;;;;;;;;5094010;27;99390;-76
2023/06/25 12:29:05;;;;;;;3.40;3.20;;;;;;;;;;5089685;27;98257;-76
2023/06/25 12:31:32;;;;;;;4.57;3.22;;;;;;;;;;5090855;27;99202;-76
2023/06/25 12:33:58;;;;;;;6.13;3.65;;;;;;;;;;5088452;27;98975;-75
2023/06/25 12:36:25;;;;;;;10.00;3.97;;;;;;;;;;5091247;27;99213;-75
2023/06/25 12:38:51;;;;;;;3.75;3.45;;;;;;;;;;5090882;27;99513;-75
2023/06/25 12:41:21;;;;;;;3.50;3.30;;;;;;;;;;5089347;27;98814;-75
2023/06/25 12:43:47;;;;;;;3.40;3.20;;;;;;;;;;5088981;27;98130;-74
2023/06/25 12:46:14;;;;;;;8.25;3.85;;;;;;;;;;5089650;27;99935;-75
2023/06/25 12:48:40;;;;;;;3.67;3.47;;;;;;;;;;5092185;27;98945;-75
2023/06/25 12:51:07;;;;;;;3.60;3.40;;;;;;;;;;5089559;27;98929;-74
2023/06/25 12:53:33;;;;;;;3.78;3.55;;;;;;;;;;5090151;27;100054;-74
2023/06/25 12:56:00;;;;;;;3.70;3.22;;;;;;;;;;5089163;27;98813;-75
2023/06/25 12:58:26;;;;;;;4.25;3.90;;;;;;;;;;5089973;27;98569;-74
2023/06/25 13:00:53;;;;;;;4.75;4.10;;;;;;;;;;5090326;27;100278;-74
2023/06/25 13:03:32;;;;;;;3.88;3.63;;;;;;;;;;5089009;27;98247;-74
2023/06/25 13:05:59;;;;;;;4.05;3.75;;;;;;;;;;5089539;27;99419;-75
2023/06/25 13:08:27;;;;;;;3.63;3.33;;;;;;;;;;5088480;27;100177;-75
2023/06/25 13:10:54;;;;;;;3.67;3.47;;;;;;;;;;5092048;27;98350;-75
2023/06/25 13:13:21;;;;;;;5.60;3.47;;;;;;;;;;5089125;27;98916;-74
2023/06/25 13:15:47;;;;;;;5.13;3.40;;;;;;;;;;5089575;27;98300;-74
2023/06/25 13:18:14;;;;;;;3.72;3.53;;;;;;;;;;5088673;27;98538;-74
2023/06/25 13:20:40;;;;;;;3.88;3.58;;;;;;;;;;5089640;27;99998;-74
2023/06/25 13:23:07;;;;;;;3.83;3.58;;;;;;;;;;5088855;27;98649;-74
2023/06/25 13:25:37;;;;;;;4.05;3.75;;;;;;;;;;5089917;27;99730;-74
2023/06/25 13:28:05;;;;;;;3.67;3.37;;;;;;;;;;5070848;27;100245;-74
2023/06/25 13:30:32;;;;;;;5.15;4.03;;;;;;;;;;5088942;27;98746;-74
2023/06/25 13:32:59;;;;;;;4.20;3.22;;;;;;;;;;5090815;27;98756;-74
2023/06/25 13:35:26;;;;;;;3.90;3.60;;;;;;;;;;5088879;27;98336;-74
2023/06/25 13:37:52;;;;;;;3.90;3.45;;;;;;;;;;5088580;27;98407;-74
2023/06/25 13:40:19;;;;;;;6.10;3.47;;;;;;;;;;5088486;27;98971;-74
2023/06/25 13:42:45;;;;;;;4.32;4.03;;;;;;;;;;5088512;27;98509;-74
2023/06/25 13:45:12;;;;;;;3.80;3.50;;;;;;;;;;5088577;27;99715;-75
2023/06/25 13:47:38;;;;;;;4.95;3.90;;;;;;;;;;5089330;27;99966;-74
2023/06/25 13:50:05;;;;;;;3.72;3.50;;;;;;;;;;5089155;27;98294;-75
2023/06/25 13:52:32;;;;;;;4.72;3.20;;;;;;;;;;5088120;27;98414;-75
2023/06/25 13:54:58;;;;;;;8.40;3.60;;;;;;;;;;5091873;27;98204;-75
2023/06/25 13:57:25;;;;;;;4.53;3.08;;;;;;;;;;5088078;27;99704;-76
2023/06/25 13:59:51;;;;;;;3.63;3.42;;;;;;;;;;5088443;27;100019;-74
2023/06/25 14:02:17;;;;;;;8.57;3.97;;;;;;;;;;5088574;27;98241;-75
2023/06/25 14:04:44;;;;;;;3.60;3.30;;;;;;;;;;5089248;27;99258;-74
2023/06/25 14:07:10;;;;;;;3.78;3.47;;;;;;;;;;5088129;27;99798;-74
2023/06/25 14:09:37;;;;;;;5.10;3.70;;;;;;;;;;5087730;27;98921;-75
2023/06/25 14:12:03;;;;;;;4.25;3.55;;;;;;;;;;5087976;27;98453;-75
2023/06/25 14:14:30;;;;;;;6.28;3.25;;;;;;;;;;5091314;27;99382;-74
2023/06/25 14:16:56;;;;;;;5.43;3.50;;;;;;;;;;5088374;27;98965;-76
2023/06/25 14:19:23;;;;;;;5.10;3.75;;;;;;;;;;5088214;27;98200;-75
2023/06/25 14:21:49;;;;;;;3.33;3.13;;;;;;;;;;5087902;27;98011;-76
2023/06/25 14:24:16;;;;;;;3.70;3.50;;;;;;;;;;5088238;27;99588;-76
2023/06/25 14:26:42;;;;;;;4.00;3.47;;;;;;;;;;5087875;27;100061;-76
2023/06/25 14:29:09;;;;;;;3.83;3.53;;;;;;;;;;5088533;27;98261;-76
2023/06/25 14:31:37;;;;;;;4.43;3.35;;;;;;;;;;5088825;27;98654;-76
2023/06/25 14:34:04;;;;;;;3.80;3.50;;;;;;;;;;5087528;27;98905;-77
2023/06/25 14:36:30;;;;;;;3.00;2.80;;;;;;;;;;5092622;27;98074;-76